Bloomfield, NM

6:50 AM MDT on May 06, 2015 (GMT -0600)
Durango-La Plata County | | Change Station
CLOSE
Current Station
Airport
Location: Durango,
Elevation: 6683 ft
Nearby Weather Stations

Elev 6683 ft 37.14 °N, 107.76 °W | Updated 57 minutes ago

Rain
Rain
46 °F
Feels Like 43 °F
N
6
Wind Variable Wind from SW

Today
High -- | Low -- °F
--% Chance of Precip.
Yesterday
High -- | Low -- °F
Precip. -- in
6:12 AM 8:04 PM
Waning Gibbous, 94% visible
Pressure 29.81 in
Visibility 10.0 miles
Clouds Overcast 1900 ft
Windchill 43 °F
Dew Point 45 °F
Humidity 96%
Rainfall 0.16 in
Snow Depth Not available.
UV 0 out of 12
Pollen 4.80 out of 12
Air Quality Not available.
Flu Activity Local Activity
METAR KDRO 061153Z AUTO 23005KT 10SM OVC019 08/07 A2992 RMK AO2 RAB1057E21 SLP094 P0001 60016 70086 T00780072 10083 20072 51002

More Conditions Fewer Conditions

Pressure 29.81 in
Visibility 10.0 miles
Clouds Overcast 1900 ft
Windchill 43 °F
Dew Point 45 °F
Humidity 96%
Rainfall 0.16 in
Snow Depth Not available.
UV 0 out of 12
Pollen 4.80 out of 12
Air Quality Not available.
Flu Activity Local Activity
METAR KDRO 061153Z AUTO 23005KT 10SM OVC019 08/07 A2992 RMK AO2 RAB1057E21 SLP094 P0001 60016 70086 T00780072 10083 20072 51002

More Conditions Fewer Conditions

10-Day Weather Forecast

Almanac

Astronomy

May. 06, 2015 Rise Set
Actual Time
Civil Twilight
Nautical Twilight
Astronomical Twilight
Moon
Length of Visible Light
Length of Day
Tomorrow will be .
, % of the Moon is Illuminated

Today's Extremes

State Highs State Lows

Community

WunderPhotos

Upload Photos

1,818,884 photos uploaded!

WunderBlogs® & News

Nearby

Air Quality

  Air Quality AQ Index Pollutant
Not available.

Snow Depth

Station Depth Elevation

Earthquake Activity

City Distance Mag. Time & Date
Minimum magnitude displayed is 2.5.

Coastal Water Temperatures

Place Temperature

Stations

Nearby Weather Stations

Station Location Temp. Windchill Dew Point Humidity Wind Precip. Elev Updated Type